createdAt,value
2022-09-17T00:00:07.125Z,21.23
2022-09-17T00:00:38.537Z,21.22
2022-09-17T00:01:09.933Z,21.22
2022-09-17T00:01:41.406Z,21.22
2022-09-17T00:02:12.927Z,21.22
2022-09-17T00:02:44.418Z,21.22
2022-09-17T00:03:15.860Z,21.20
2022-09-17T00:03:47.284Z,21.22
2022-09-17T00:04:18.699Z,21.21
2022-09-17T00:04:50.075Z,21.20
2022-09-17T00:05:21.488Z,21.20
2022-09-17T00:05:52.889Z,21.21
2022-09-17T00:06:24.409Z,21.20
2022-09-17T00:06:55.795Z,21.20
2022-09-17T00:07:27.233Z,21.20
2022-09-17T00:07:58.645Z,21.20
2022-09-17T00:08:30.051Z,21.19
2022-09-17T00:09:01.455Z,21.19
2022-09-17T00:09:32.840Z,21.19
2022-09-17T00:10:04.239Z,21.20
2022-09-17T00:10:35.636Z,21.19
2022-09-17T00:11:07.038Z,21.19
2022-09-17T00:11:38.497Z,21.18
2022-09-17T00:12:09.890Z,21.19
2022-09-17T00:12:41.274Z,21.20
2022-09-17T00:13:12.655Z,21.18
2022-09-17T00:13:44.055Z,21.19
2022-09-17T00:14:15.448Z,21.18
2022-09-17T00:14:46.847Z,21.17
2022-09-17T00:15:18.253Z,21.19
2022-09-17T00:15:49.671Z,21.17
2022-09-17T00:16:21.125Z,21.19
2022-09-17T00:16:52.755Z,21.18
2022-09-17T00:17:24.156Z,21.18
2022-09-17T00:17:55.539Z,21.19
2022-09-17T00:18:26.937Z,21.17
2022-09-17T00:18:58.312Z,21.19
2022-09-17T00:19:29.724Z,21.18
2022-09-17T00:20:01.121Z,21.18
2022-09-17T00:20:32.515Z,21.18
2022-09-17T00:21:03.917Z,21.17
2022-09-17T00:21:35.295Z,21.16
2022-09-17T00:22:06.790Z,21.17
2022-09-17T00:22:38.177Z,21.16
2022-09-17T00:23:09.583Z,21.17
2022-09-17T00:23:40.973Z,21.17
2022-09-17T00:24:12.376Z,21.17
2022-09-17T00:24:43.786Z,21.15
2022-09-17T00:25:15.186Z,21.15
2022-09-17T00:25:46.585Z,21.15
2022-09-17T00:26:17.987Z,21.15
2022-09-17T00:26:49.363Z,21.16
2022-09-17T00:27:20.853Z,21.15
2022-09-17T00:27:52.231Z,21.13
2022-09-17T00:28:23.639Z,21.13
2022-09-17T00:28:55.023Z,21.14
2022-09-17T00:29:26.415Z,21.14
2022-09-17T00:29:57.862Z,21.14
2022-09-17T00:30:29.252Z,21.14
2022-09-17T00:31:00.716Z,21.13
2022-09-17T00:31:32.250Z,21.14
2022-09-17T00:32:03.682Z,21.12
2022-09-17T00:32:35.119Z,21.12
2022-09-17T00:33:06.519Z,21.13
2022-09-17T00:33:37.908Z,21.13
2022-09-17T00:34:09.289Z,21.12
2022-09-17T00:34:40.677Z,21.12
2022-09-17T00:35:12.092Z,21.11
2022-09-17T00:35:43.468Z,21.12
2022-09-17T00:36:14.843Z,21.11
2022-09-17T00:36:46.221Z,21.12
2022-09-17T00:37:17.616Z,21.12
2022-09-17T00:37:49.060Z,21.11
2022-09-17T00:38:20.519Z,21.12
2022-09-17T00:38:51.907Z,21.10
2022-09-17T00:39:23.312Z,21.11
2022-09-17T00:39:54.749Z,21.11
2022-09-17T00:40:26.321Z,21.11
2022-09-17T00:40:57.769Z,21.09
2022-09-17T00:41:29.172Z,21.10
2022-09-17T00:42:00.557Z,21.09
2022-09-17T00:42:31.940Z,21.08
2022-09-17T00:43:03.439Z,21.10
2022-09-17T00:43:34.848Z,21.09
2022-09-17T00:44:06.230Z,21.11
2022-09-17T00:44:37.612Z,21.10
2022-09-17T00:45:09.020Z,21.09
2022-09-17T00:45:40.424Z,21.09
2022-09-17T00:46:11.829Z,21.09
2022-09-17T00:46:43.371Z,21.07
2022-09-17T00:47:14.808Z,21.07
2022-09-17T00:47:46.187Z,21.07
2022-09-17T00:48:17.719Z,21.08
2022-09-17T00:48:49.104Z,21.07
2022-09-17T00:49:20.494Z,21.07
2022-09-17T00:49:51.879Z,21.08
2022-09-17T00:50:23.265Z,21.07
2022-09-17T00:50:54.642Z,21.06
2022-09-17T00:51:26.019Z,21.07
2022-09-17T00:52:00.444Z,21.06
2022-09-17T00:52:32.240Z,21.07
2022-09-17T00:53:03.639Z,21.07
2022-09-17T00:53:35.148Z,21.06
2022-09-17T00:54:06.539Z,21.06
2022-09-17T00:54:37.918Z,21.05
2022-09-17T00:55:09.300Z,21.06
2022-09-17T00:55:40.710Z,21.05
2022-09-17T00:56:12.103Z,21.05
2022-09-17T00:56:43.511Z,21.05
2022-09-17T00:57:14.900Z,21.05
2022-09-17T00:57:46.279Z,21.04
2022-09-17T00:58:17.667Z,21.05
2022-09-17T00:58:49.147Z,21.05
2022-09-17T00:59:20.524Z,21.04
2022-09-17T00:59:51.914Z,21.04
2022-09-17T01:00:23.314Z,21.05
2022-09-17T01:00:54.748Z,21.05
2022-09-17T01:01:26.188Z,21.04
2022-09-17T01:01:57.671Z,21.04
2022-09-17T01:02:29.155Z,21.03
2022-09-17T01:03:00.577Z,21.03
2022-09-17T01:03:31.959Z,21.03
2022-09-17T01:04:03.474Z,21.04
2022-09-17T01:04:34.876Z,21.03
2022-09-17T01:05:06.275Z,21.03
2022-09-17T01:05:37.671Z,21.02
2022-09-17T01:06:09.047Z,21.02
2022-09-17T01:06:40.448Z,21.03
2022-09-17T01:07:11.850Z,21.02
2022-09-17T01:07:43.245Z,21.01
2022-09-17T01:08:14.644Z,21.02
2022-09-17T01:08:46.057Z,21.02
2022-09-17T01:09:17.526Z,21.01
2022-09-17T01:09:48.929Z,21.00
2022-09-17T01:10:20.376Z,21.01
2022-09-17T01:10:51.751Z,21.01
2022-09-17T01:11:23.152Z,21.01
2022-09-17T01:11:54.629Z,21.00
2022-09-17T01:12:26.023Z,21.00
2022-09-17T01:12:57.403Z,21.00
2022-09-17T01:13:28.784Z,20.99
2022-09-17T01:14:00.168Z,20.99
2022-09-17T01:14:31.707Z,21.00
2022-09-17T01:15:03.084Z,20.99
2022-09-17T01:15:34.487Z,20.99
2022-09-17T01:16:05.949Z,20.98
2022-09-17T01:16:37.347Z,20.99
2022-09-17T01:17:08.751Z,21.00
2022-09-17T01:17:40.147Z,20.99
2022-09-17T01:18:11.547Z,20.98
2022-09-17T01:18:42.943Z,20.99
2022-09-17T01:19:14.332Z,20.98
2022-09-17T01:19:45.872Z,20.98
2022-09-17T01:20:17.274Z,20.97
2022-09-17T01:20:48.661Z,20.98
2022-09-17T01:21:20.067Z,20.98
2022-09-17T01:21:51.449Z,20.98
2022-09-17T01:22:22.843Z,20.97
2022-09-17T01:22:54.229Z,20.97
2022-09-17T01:23:25.636Z,20.97
2022-09-17T01:23:57.016Z,20.97
2022-09-17T01:24:28.401Z,20.97
2022-09-17T01:24:59.814Z,20.96
2022-09-17T01:25:31.215Z,20.97
2022-09-17T01:26:02.615Z,20.96
2022-09-17T01:26:33.997Z,20.97
2022-09-17T01:27:05.384Z,20.96
2022-09-17T01:27:36.764Z,20.96
2022-09-17T01:28:08.146Z,20.95
2022-09-17T01:28:39.549Z,20.96
2022-09-17T01:29:10.952Z,20.96
2022-09-17T01:29:42.356Z,20.94
2022-09-17T01:30:13.777Z,20.94
2022-09-17T01:30:45.159Z,20.94
2022-09-17T01:31:16.561Z,20.95
2022-09-17T01:31:48.086Z,20.93
2022-09-17T01:32:19.536Z,20.94
2022-09-17T01:32:50.930Z,20.93
2022-09-17T01:33:22.338Z,20.95
2022-09-17T01:33:53.722Z,20.94
2022-09-17T01:34:25.103Z,20.94
2022-09-17T01:34:56.484Z,20.94
2022-09-17T01:35:27.900Z,20.93
2022-09-17T01:35:59.284Z,20.93
2022-09-17T01:36:30.688Z,20.93
2022-09-17T01:37:02.087Z,20.93
2022-09-17T01:37:33.463Z,20.92
2022-09-17T01:38:04.851Z,20.93
2022-09-17T01:38:36.248Z,20.93
2022-09-17T01:39:07.639Z,20.93
2022-09-17T01:39:39.040Z,20.92
2022-09-17T01:40:10.467Z,20.93
2022-09-17T01:40:41.997Z,20.92
2022-09-17T01:41:13.381Z,20.91
2022-09-17T01:41:44.787Z,20.91
2022-09-17T01:42:16.168Z,20.92
2022-09-17T01:42:47.560Z,20.91
2022-09-17T01:43:18.965Z,20.92
2022-09-17T01:43:50.364Z,20.91
2022-09-17T01:44:21.747Z,20.91
2022-09-17T01:44:53.132Z,20.91
2022-09-17T01:45:24.521Z,20.91
2022-09-17T01:45:55.999Z,20.89
2022-09-17T01:46:27.458Z,20.89
2022-09-17T01:46:58.884Z,20.90
2022-09-17T01:47:30.390Z,20.90
2022-09-17T01:48:01.782Z,20.89
2022-09-17T01:48:33.171Z,20.90
2022-09-17T01:49:04.563Z,20.88
2022-09-17T01:49:35.964Z,20.89
2022-09-17T01:50:07.347Z,20.89
2022-09-17T01:50:38.728Z,20.89
2022-09-17T01:51:10.224Z,20.89
2022-09-17T01:51:41.610Z,20.88
2022-09-17T01:52:13.021Z,20.88
2022-09-17T01:52:44.414Z,20.88
2022-09-17T01:53:15.820Z,20.88
2022-09-17T01:53:47.205Z,20.89
2022-09-17T01:54:18.584Z,20.88
2022-09-17T01:54:49.972Z,20.88
2022-09-17T01:55:21.357Z,20.88
2022-09-17T01:55:52.779Z,20.88
2022-09-17T01:56:24.272Z,20.88
2022-09-17T01:56:55.653Z,20.88
2022-09-17T01:57:27.048Z,20.87
2022-09-17T01:57:58.437Z,20.87
2022-09-17T01:58:29.818Z,20.87
2022-09-17T01:59:01.204Z,20.87
2022-09-17T01:59:32.598Z,20.87
2022-09-17T02:00:03.980Z,20.87
2022-09-17T02:00:35.405Z,20.86
2022-09-17T02:01:06.969Z,20.85
2022-09-17T02:01:38.530Z,20.85
2022-09-17T02:02:10.027Z,20.86
2022-09-17T02:02:41.507Z,20.86
2022-09-17T02:03:12.891Z,20.85
2022-09-17T02:03:44.269Z,20.84
2022-09-17T02:04:15.656Z,20.84
2022-09-17T02:04:47.057Z,20.85
2022-09-17T02:05:18.440Z,20.85
2022-09-17T02:05:49.844Z,20.84
2022-09-17T02:06:21.270Z,20.85
2022-09-17T02:06:52.654Z,20.85
2022-09-17T02:07:24.063Z,20.83
2022-09-17T02:07:55.457Z,20.83
2022-09-17T02:08:26.857Z,20.84
2022-09-17T02:08:58.316Z,20.83
2022-09-17T02:09:29.753Z,20.83
2022-09-17T02:10:01.160Z,20.83
2022-09-17T02:10:32.559Z,20.83
2022-09-17T02:11:03.940Z,20.82
2022-09-17T02:11:35.451Z,20.83
2022-09-17T02:12:06.846Z,20.82
2022-09-17T02:12:38.235Z,20.82
2022-09-17T02:13:09.615Z,20.83
2022-09-17T02:13:40.996Z,20.83
2022-09-17T02:14:12.378Z,20.82
2022-09-17T02:14:43.780Z,20.81
2022-09-17T02:15:15.159Z,20.82
2022-09-17T02:15:46.602Z,20.80
2022-09-17T02:16:18.101Z,20.81
2022-09-17T02:16:49.515Z,20.79
2022-09-17T02:17:20.905Z,20.80
2022-09-17T02:17:52.340Z,20.82
2022-09-17T02:18:23.719Z,20.81
2022-09-17T02:18:55.136Z,20.80
2022-09-17T02:19:26.514Z,20.79
2022-09-17T02:19:57.894Z,20.79
2022-09-17T02:20:29.268Z,20.79
2022-09-17T02:21:00.653Z,20.80
2022-09-17T02:21:32.129Z,20.80
2022-09-17T02:22:03.517Z,20.79
2022-09-17T02:22:34.927Z,20.80
2022-09-17T02:23:06.308Z,20.79
2022-09-17T02:23:37.693Z,20.78
2022-09-17T02:24:09.072Z,20.78
2022-09-17T02:24:40.447Z,20.79
2022-09-17T02:25:11.830Z,20.78
2022-09-17T02:25:43.216Z,20.78
2022-09-17T02:26:14.595Z,20.78
2022-09-17T02:26:46.065Z,20.77
2022-09-17T02:27:17.466Z,20.77
2022-09-17T02:27:48.851Z,20.77
2022-09-17T02:28:20.236Z,20.76
2022-09-17T02:28:51.643Z,20.78
2022-09-17T02:29:23.049Z,20.77
2022-09-17T02:29:54.499Z,20.77
2022-09-17T02:30:25.874Z,20.75
2022-09-17T02:30:57.371Z,20.76
2022-09-17T02:31:28.994Z,20.75
2022-09-17T02:32:00.429Z,20.76
2022-09-17T02:32:31.819Z,20.76
2022-09-17T02:33:03.211Z,20.76
2022-09-17T02:33:34.590Z,20.75
2022-09-17T02:34:05.996Z,20.75
2022-09-17T02:34:37.388Z,20.75
2022-09-17T02:35:08.796Z,20.74
2022-09-17T02:35:40.195Z,20.74
2022-09-17T02:36:11.597Z,20.74
2022-09-17T02:36:43.056Z,20.75
2022-09-17T02:37:14.456Z,20.74
2022-09-17T02:37:45.839Z,20.74
2022-09-17T02:38:17.235Z,20.75
2022-09-17T02:38:48.627Z,20.73
2022-09-17T02:39:20.013Z,20.74
2022-09-17T02:39:51.454Z,20.74
2022-09-17T02:40:22.967Z,20.73
2022-09-17T02:40:54.403Z,20.73
2022-09-17T02:41:25.812Z,20.73
2022-09-17T02:41:57.220Z,20.73
2022-09-17T02:42:28.598Z,20.73
2022-09-17T02:43:00.004Z,20.74
2022-09-17T02:43:31.404Z,20.73
2022-09-17T02:44:02.804Z,20.73
2022-09-17T02:44:34.203Z,20.72
2022-09-17T02:45:05.587Z,20.73
2022-09-17T02:45:36.977Z,20.74
2022-09-17T02:46:08.421Z,20.73
2022-09-17T02:46:39.983Z,20.73
2022-09-17T02:47:11.419Z,20.72
2022-09-17T02:47:42.820Z,20.73
2022-09-17T02:48:14.220Z,20.72
2022-09-17T02:48:45.601Z,20.72
2022-09-17T02:49:16.984Z,20.72
2022-09-17T02:49:48.393Z,20.71
2022-09-17T02:50:19.826Z,20.71
2022-09-17T02:50:51.227Z,20.71
2022-09-17T02:51:22.610Z,20.72
2022-09-17T02:51:54.134Z,20.71
2022-09-17T02:52:25.547Z,20.71
2022-09-17T02:52:56.932Z,20.72
2022-09-17T02:53:28.316Z,20.71
2022-09-17T02:53:59.706Z,20.71
2022-09-17T02:54:31.088Z,20.70
2022-09-17T02:55:02.489Z,20.71
2022-09-17T02:55:33.867Z,20.70
2022-09-17T02:56:05.263Z,20.71
2022-09-17T02:56:36.644Z,20.70
2022-09-17T02:57:08.053Z,20.70
2022-09-17T02:57:39.435Z,20.70
2022-09-17T02:58:10.815Z,20.69
2022-09-17T02:58:42.201Z,20.70
2022-09-17T02:59:13.599Z,20.70
2022-09-17T02:59:45.023Z,20.69
2022-09-17T03:00:16.411Z,20.69
2022-09-17T03:00:47.892Z,20.69
2022-09-17T03:01:19.376Z,20.68
2022-09-17T03:01:50.838Z,20.69
2022-09-17T03:02:22.371Z,20.68
2022-09-17T03:02:53.827Z,20.68
2022-09-17T03:03:25.226Z,20.68
2022-09-17T03:03:56.608Z,20.68
2022-09-17T03:04:28.005Z,20.67
2022-09-17T03:04:59.385Z,20.67
2022-09-17T03:05:30.777Z,20.67
2022-09-17T03:06:02.175Z,20.67
2022-09-17T03:06:33.556Z,20.68
2022-09-17T03:07:04.931Z,20.66
2022-09-17T03:07:36.382Z,20.66
2022-09-17T03:08:07.786Z,20.67
2022-09-17T03:08:39.171Z,20.66
2022-09-17T03:09:10.571Z,20.66
2022-09-17T03:09:41.953Z,20.66
2022-09-17T03:10:13.331Z,20.66
2022-09-17T03:10:44.714Z,20.66
2022-09-17T03:11:16.096Z,20.66
2022-09-17T03:11:47.502Z,20.66
2022-09-17T03:12:19.034Z,20.66
2022-09-17T03:12:50.417Z,20.65
2022-09-17T03:13:21.801Z,20.65
2022-09-17T03:13:53.264Z,20.65
2022-09-17T03:14:24.668Z,20.65
2022-09-17T03:14:56.063Z,20.65
2022-09-17T03:15:27.441Z,20.65
2022-09-17T03:15:58.855Z,20.65
2022-09-17T03:16:30.491Z,20.64
2022-09-17T03:17:01.967Z,20.64
2022-09-17T03:17:33.576Z,20.64
2022-09-17T03:18:04.970Z,20.64
2022-09-17T03:18:36.358Z,20.64
2022-09-17T03:19:07.765Z,20.64
2022-09-17T03:19:39.150Z,20.64
2022-09-17T03:20:10.553Z,20.63
2022-09-17T03:20:41.955Z,20.64
2022-09-17T03:21:13.358Z,20.63
2022-09-17T03:21:44.817Z,20.63
2022-09-17T03:22:16.199Z,20.63
2022-09-17T03:22:47.654Z,20.63
2022-09-17T03:23:19.031Z,20.62
2022-09-17T03:23:50.417Z,20.62
2022-09-17T03:24:21.795Z,20.62
2022-09-17T03:24:53.187Z,20.62
2022-09-17T03:25:24.574Z,20.62
2022-09-17T03:25:55.974Z,20.62
2022-09-17T03:26:27.351Z,20.62
2022-09-17T03:26:58.760Z,20.61
2022-09-17T03:27:30.183Z,20.61
2022-09-17T03:28:01.599Z,20.61
2022-09-17T03:28:32.986Z,20.61
2022-09-17T03:29:04.382Z,20.60
2022-09-17T03:29:35.790Z,20.60
2022-09-17T03:30:07.200Z,20.60
2022-09-17T03:30:38.579Z,20.60
2022-09-17T03:31:10.032Z,20.60
2022-09-17T03:31:41.536Z,20.60
2022-09-17T03:32:13.029Z,20.59
2022-09-17T03:32:44.437Z,20.60
2022-09-17T03:33:15.859Z,20.59
2022-09-17T03:33:47.235Z,20.59
2022-09-17T03:34:18.615Z,20.59
2022-09-17T03:34:50.001Z,20.59
2022-09-17T03:35:21.404Z,20.60
2022-09-17T03:35:52.809Z,20.59
2022-09-17T03:36:24.192Z,20.58
2022-09-17T03:36:55.595Z,20.59
2022-09-17T03:37:30.977Z,20.59
2022-09-17T03:38:04.184Z,20.58
2022-09-17T03:38:35.668Z,20.59
2022-09-17T03:39:07.059Z,20.58
2022-09-17T03:39:38.450Z,20.59
2022-09-17T03:40:09.915Z,20.59
2022-09-17T03:40:41.331Z,20.58
2022-09-17T03:41:12.734Z,20.58
2022-09-17T03:41:44.137Z,20.58
2022-09-17T03:42:15.534Z,20.58
2022-09-17T03:42:46.911Z,20.58
2022-09-17T03:43:18.314Z,20.58
2022-09-17T03:43:49.817Z,20.58
2022-09-17T03:44:21.219Z,20.57
2022-09-17T03:44:52.618Z,20.58
2022-09-17T03:45:23.999Z,20.57
2022-09-17T03:45:55.471Z,20.56
2022-09-17T03:46:26.900Z,20.57
2022-09-17T03:46:58.312Z,20.57
2022-09-17T03:47:29.733Z,20.56
2022-09-17T03:48:01.157Z,20.56
2022-09-17T03:48:32.539Z,20.57
2022-09-17T03:49:03.995Z,20.57
2022-09-17T03:49:35.398Z,20.56
2022-09-17T03:50:06.780Z,20.56
2022-09-17T03:50:38.160Z,20.55
2022-09-17T03:51:09.560Z,20.56
2022-09-17T03:51:40.959Z,20.55
2022-09-17T03:52:12.342Z,20.55
2022-09-17T03:52:43.747Z,20.55
2022-09-17T03:53:15.124Z,20.56
2022-09-17T03:53:46.531Z,20.56
2022-09-17T03:54:18.071Z,20.55
2022-09-17T03:54:49.466Z,20.55
2022-09-17T03:55:20.849Z,20.55
2022-09-17T03:55:52.470Z,20.55
2022-09-17T03:56:23.867Z,20.55
2022-09-17T03:56:55.267Z,20.55
2022-09-17T03:57:26.654Z,20.54
2022-09-17T03:57:58.065Z,20.54
2022-09-17T03:58:29.447Z,20.54
2022-09-17T03:59:00.849Z,20.55
2022-09-17T03:59:32.310Z,20.54
2022-09-17T04:00:03.691Z,20.54
2022-09-17T04:00:35.105Z,20.55
2022-09-17T04:01:06.516Z,20.55
2022-09-17T04:01:38.070Z,20.54
2022-09-17T04:02:09.650Z,20.53
2022-09-17T04:02:41.128Z,20.54
2022-09-17T04:03:12.542Z,20.53
2022-09-17T04:03:43.949Z,20.54
2022-09-17T04:04:15.357Z,20.53
2022-09-17T04:04:46.883Z,20.52
2022-09-17T04:05:18.263Z,20.52
2022-09-17T04:05:49.645Z,20.52
2022-09-17T04:06:21.053Z,20.54
2022-09-17T04:06:52.435Z,20.52
2022-09-17T04:07:23.908Z,20.51
2022-09-17T04:07:55.287Z,20.52
2022-09-17T04:08:26.672Z,20.52
2022-09-17T04:08:58.071Z,20.51
2022-09-17T04:09:30.000Z,20.51
2022-09-17T04:10:01.556Z,20.51
2022-09-17T04:10:32.944Z,20.51
2022-09-17T04:11:04.356Z,20.50
2022-09-17T04:11:35.750Z,20.51
2022-09-17T04:12:07.135Z,20.51
2022-09-17T04:12:38.531Z,20.50
2022-09-17T04:13:09.916Z,20.50
2022-09-17T04:13:41.295Z,20.50
2022-09-17T04:14:12.724Z,20.50
2022-09-17T04:14:44.127Z,20.50
2022-09-17T04:15:15.627Z,20.50
2022-09-17T04:15:47.076Z,20.49
2022-09-17T04:16:18.579Z,20.49
2022-09-17T04:16:50.066Z,20.49
2022-09-17T04:17:21.473Z,20.48
2022-09-17T04:17:52.861Z,20.49
2022-09-17T04:18:24.250Z,20.49
2022-09-17T04:18:55.631Z,20.48
2022-09-17T04:19:27.021Z,20.48
2022-09-17T04:19:58.409Z,20.48
2022-09-17T04:20:29.820Z,20.48
2022-09-17T04:21:01.223Z,20.48
2022-09-17T04:21:32.604Z,20.47
2022-09-17T04:22:04.007Z,20.48
2022-09-17T04:22:35.383Z,20.48
2022-09-17T04:23:06.771Z,20.47
2022-09-17T04:23:38.166Z,20.47
2022-09-17T04:24:09.550Z,20.47
2022-09-17T04:24:40.931Z,20.46
2022-09-17T04:25:12.313Z,20.47
2022-09-17T04:25:43.731Z,20.46
2022-09-17T04:26:15.107Z,20.47
2022-09-17T04:26:46.493Z,20.45
2022-09-17T04:27:17.876Z,20.45
2022-09-17T04:27:49.282Z,20.46
2022-09-17T04:28:20.664Z,20.45
2022-09-17T04:28:52.052Z,20.46
2022-09-17T04:29:23.446Z,20.45
2022-09-17T04:29:54.855Z,20.45
2022-09-17T04:30:26.262Z,20.45
2022-09-17T04:30:57.961Z,20.45
2022-09-17T04:31:29.575Z,20.46
2022-09-17T04:32:01.001Z,20.46
2022-09-17T04:32:32.385Z,20.47
2022-09-17T04:33:03.788Z,20.47
2022-09-17T04:33:35.164Z,20.48
2022-09-17T04:34:06.548Z,20.48
2022-09-17T04:34:37.928Z,20.48
2022-09-17T04:35:09.322Z,20.49
2022-09-17T04:35:40.700Z,20.49
2022-09-17T04:36:12.157Z,20.49
2022-09-17T04:36:43.552Z,20.49
2022-09-17T04:37:14.931Z,20.51
2022-09-17T04:37:46.327Z,20.51
2022-09-17T04:38:17.737Z,20.51
2022-09-17T04:38:49.121Z,20.54
2022-09-17T04:39:20.501Z,20.55
2022-09-17T04:39:51.958Z,20.54
2022-09-17T04:40:23.437Z,20.55
2022-09-17T04:40:54.877Z,20.55
2022-09-17T04:41:26.326Z,20.56
2022-09-17T04:41:57.713Z,20.56
2022-09-17T04:42:29.115Z,20.57
2022-09-17T04:43:00.492Z,20.59
2022-09-17T04:43:31.898Z,20.59
2022-09-17T04:44:03.285Z,20.60
2022-09-17T04:44:34.742Z,20.60
2022-09-17T04:45:06.149Z,20.60
2022-09-17T04:45:37.533Z,20.62
2022-09-17T04:46:08.962Z,20.62
2022-09-17T04:46:40.548Z,20.64
2022-09-17T04:47:12.014Z,20.64
2022-09-17T04:47:43.409Z,20.65
2022-09-17T04:48:14.801Z,20.65
2022-09-17T04:48:46.254Z,20.67
2022-09-17T04:49:17.635Z,20.67
2022-09-17T04:49:49.043Z,20.68
2022-09-17T04:50:20.443Z,20.69
2022-09-17T04:50:51.847Z,20.70
2022-09-17T04:51:23.263Z,20.70
2022-09-17T04:51:54.651Z,20.71
2022-09-17T04:52:30.794Z,20.72
2022-09-17T04:53:02.446Z,20.73
2022-09-17T04:53:33.822Z,20.73
2022-09-17T04:54:05.233Z,20.73
2022-09-17T04:54:36.644Z,20.76
2022-09-17T04:55:08.046Z,20.75
2022-09-17T04:55:39.428Z,20.77
2022-09-17T04:56:10.832Z,20.78
2022-09-17T04:56:42.284Z,20.79
2022-09-17T04:57:13.673Z,20.79
2022-09-17T04:57:45.060Z,20.78
2022-09-17T04:58:16.448Z,20.79
2022-09-17T04:58:47.847Z,20.80
2022-09-17T04:59:19.228Z,20.82
2022-09-17T04:59:50.613Z,20.83
2022-09-17T05:00:22.016Z,20.83
2022-09-17T05:00:53.456Z,20.84
2022-09-17T05:01:24.977Z,20.85
2022-09-17T05:01:56.666Z,20.86
2022-09-17T05:02:28.146Z,20.86
2022-09-17T05:02:59.584Z,20.86
2022-09-17T05:03:30.987Z,20.87
2022-09-17T05:04:02.367Z,20.87
2022-09-17T05:04:33.821Z,20.88
2022-09-17T05:05:05.227Z,20.87
2022-09-17T05:05:36.619Z,20.89
2022-09-17T05:06:08.009Z,20.89
2022-09-17T05:06:39.411Z,20.88
2022-09-17T05:07:13.351Z,20.90
2022-09-17T05:07:45.413Z,20.90
2022-09-17T05:08:16.815Z,20.90
2022-09-17T05:08:48.246Z,20.90
2022-09-17T05:09:19.653Z,20.92
2022-09-17T05:09:51.040Z,20.92
2022-09-17T05:10:22.438Z,20.92
2022-09-17T05:10:53.842Z,20.93
2022-09-17T05:11:25.250Z,20.93
2022-09-17T05:11:56.721Z,20.93
2022-09-17T05:12:32.399Z,20.93
2022-09-17T05:13:05.684Z,20.95
2022-09-17T05:13:37.080Z,20.94
2022-09-17T05:14:08.467Z,20.95
2022-09-17T05:14:39.856Z,20.95
2022-09-17T05:15:11.241Z,20.96
2022-09-17T05:15:42.683Z,20.96
2022-09-17T05:16:14.272Z,20.97
2022-09-17T05:16:45.732Z,20.97
2022-09-17T05:17:17.113Z,20.98
2022-09-17T05:17:48.561Z,20.98
2022-09-17T05:18:19.944Z,20.98
2022-09-17T05:18:51.338Z,20.98
2022-09-17T05:19:22.720Z,20.99
2022-09-17T05:19:54.101Z,20.99
2022-09-17T05:20:25.506Z,21.00
2022-09-17T05:20:56.920Z,20.99
2022-09-17T05:21:28.319Z,20.99
2022-09-17T05:21:59.709Z,21.00
2022-09-17T05:22:31.090Z,21.01
2022-09-17T05:23:02.521Z,21.01
2022-09-17T05:23:33.925Z,21.01
2022-09-17T05:24:05.329Z,21.00
2022-09-17T05:24:36.736Z,21.01
2022-09-17T05:25:08.132Z,21.02
2022-09-17T05:25:39.532Z,21.01
2022-09-17T05:26:10.932Z,21.02
2022-09-17T05:26:42.311Z,21.02
2022-09-17T05:27:13.692Z,21.03
2022-09-17T05:27:45.093Z,21.04
2022-09-17T05:28:16.589Z,21.03
2022-09-17T05:28:47.979Z,21.04
2022-09-17T05:29:19.393Z,21.04
2022-09-17T05:29:50.770Z,21.04
2022-09-17T05:30:22.149Z,21.04
2022-09-17T05:30:53.615Z,21.04
2022-09-17T05:31:25.060Z,21.04
2022-09-17T05:31:56.520Z,21.05
2022-09-17T05:32:27.898Z,21.05
2022-09-17T05:32:59.277Z,21.05
2022-09-17T05:33:30.765Z,21.05
2022-09-17T05:34:02.167Z,21.05
2022-09-17T05:34:33.553Z,21.06
2022-09-17T05:35:05.784Z,21.06
2022-09-17T05:35:37.440Z,21.05
2022-09-17T05:36:08.820Z,21.07
2022-09-17T05:36:40.227Z,21.06
2022-09-17T05:37:11.613Z,21.06
2022-09-17T05:37:43.055Z,21.06
2022-09-17T05:38:14.440Z,21.07
2022-09-17T05:38:45.826Z,21.06
2022-09-17T05:39:17.213Z,21.07
2022-09-17T05:39:48.600Z,21.06
2022-09-17T05:40:20.044Z,21.08
2022-09-17T05:40:51.508Z,21.06
2022-09-17T05:41:22.892Z,21.07
2022-09-17T05:41:54.273Z,21.07
2022-09-17T05:42:25.654Z,21.07
2022-09-17T05:42:57.107Z,21.07
2022-09-17T05:43:28.515Z,21.07
2022-09-17T05:43:59.927Z,21.07
2022-09-17T05:44:32.463Z,21.07
2022-09-17T05:45:03.863Z,21.08
2022-09-17T05:45:35.253Z,21.09
2022-09-17T05:46:06.674Z,21.08
2022-09-17T05:46:38.146Z,21.08
2022-09-17T05:47:09.579Z,21.07
2022-09-17T05:47:40.972Z,21.09
2022-09-17T05:48:12.395Z,21.07
2022-09-17T05:48:43.780Z,21.07
2022-09-17T05:49:15.164Z,21.07
2022-09-17T05:49:46.562Z,21.09
2022-09-17T05:50:17.968Z,21.08
2022-09-17T05:50:49.347Z,21.08
2022-09-17T05:51:20.752Z,21.08
2022-09-17T05:51:52.139Z,21.09
2022-09-17T05:52:23.523Z,21.07
2022-09-17T05:52:54.934Z,21.09
2022-09-17T05:53:26.357Z,21.09
2022-09-17T05:53:57.735Z,21.09
2022-09-17T05:54:29.111Z,21.09
2022-09-17T05:55:00.509Z,21.09
2022-09-17T05:55:31.904Z,21.09
2022-09-17T05:56:03.292Z,21.09
2022-09-17T05:56:34.682Z,21.09
2022-09-17T05:57:06.068Z,21.08
2022-09-17T05:57:37.473Z,21.08
2022-09-17T05:58:09.000Z,21.09
2022-09-17T05:58:40.390Z,21.08
2022-09-17T05:59:11.777Z,21.07
2022-09-17T05:59:43.163Z,21.08
2022-09-17T06:00:14.548Z,21.07
2022-09-17T06:00:45.943Z,21.07
2022-09-17T06:01:17.340Z,21.07
2022-09-17T06:01:48.813Z,21.08
2022-09-17T06:02:20.379Z,21.07
2022-09-17T06:02:51.879Z,21.07
2022-09-17T06:03:23.403Z,21.08
2022-09-17T06:03:54.817Z,21.07
2022-09-17T06:04:26.191Z,21.07
2022-09-17T06:04:57.576Z,21.07
2022-09-17T06:05:28.981Z,21.07
2022-09-17T06:06:00.368Z,21.07
2022-09-17T06:06:31.752Z,21.07
2022-09-17T06:07:03.136Z,21.06
2022-09-17T06:07:34.535Z,21.07
2022-09-17T06:08:05.919Z,21.07
2022-09-17T06:08:37.433Z,21.07
2022-09-17T06:09:08.863Z,21.07
2022-09-17T06:09:40.296Z,21.07
2022-09-17T06:10:11.672Z,21.07
2022-09-17T06:10:43.072Z,21.07
2022-09-17T06:11:14.476Z,21.06
2022-09-17T06:11:45.860Z,21.06
2022-09-17T06:12:17.237Z,21.06
2022-09-17T06:12:48.620Z,21.07
2022-09-17T06:13:20.004Z,21.06
2022-09-17T06:13:51.567Z,21.07
2022-09-17T06:14:22.967Z,21.05
2022-09-17T06:14:54.352Z,21.06
2022-09-17T06:15:25.744Z,21.06
2022-09-17T06:15:57.163Z,21.05
2022-09-17T06:16:28.748Z,21.05
2022-09-17T06:17:00.235Z,21.05
2022-09-17T06:17:31.630Z,21.05
2022-09-17T06:18:03.015Z,21.06
2022-09-17T06:18:34.419Z,21.06
2022-09-17T06:19:06.533Z,21.05
2022-09-17T06:19:37.924Z,21.05
2022-09-17T06:20:09.304Z,21.05
2022-09-17T06:20:40.691Z,21.05
2022-09-17T06:21:12.074Z,21.05
2022-09-17T06:21:43.455Z,21.05
2022-09-17T06:22:14.854Z,21.05
2022-09-17T06:22:46.232Z,21.05
2022-09-17T06:23:17.631Z,21.04
2022-09-17T06:23:49.014Z,21.03
2022-09-17T06:24:20.511Z,21.05
2022-09-17T06:24:51.911Z,21.04
2022-09-17T06:25:23.313Z,21.04
2022-09-17T06:25:54.701Z,21.04
2022-09-17T06:26:26.107Z,21.03
2022-09-17T06:26:57.499Z,21.03
2022-09-17T06:27:28.888Z,21.03
2022-09-17T06:28:00.292Z,21.04
2022-09-17T06:28:32.109Z,21.04
2022-09-17T06:29:03.606Z,21.03
2022-09-17T06:29:35.604Z,21.02
2022-09-17T06:30:07.135Z,21.03
2022-09-17T06:30:38.760Z,21.03
2022-09-17T06:31:10.733Z,21.03
2022-09-17T06:31:42.889Z,21.03
2022-09-17T06:32:14.826Z,21.02
2022-09-17T06:32:46.590Z,21.02
2022-09-17T06:33:18.431Z,21.02
2022-09-17T06:33:50.288Z,21.03
2022-09-17T06:34:21.758Z,21.03
2022-09-17T06:34:53.234Z,21.02
2022-09-17T06:35:24.694Z,21.02
2022-09-17T06:35:56.091Z,21.02
2022-09-17T06:36:27.481Z,21.02
2022-09-17T06:36:58.879Z,21.02
2022-09-17T06:37:30.286Z,21.01
2022-09-17T06:38:01.693Z,21.02
2022-09-17T06:38:33.091Z,21.02
2022-09-17T06:39:04.476Z,21.01
2022-09-17T06:39:35.871Z,21.01
2022-09-17T06:40:07.494Z,21.01
2022-09-17T06:40:38.967Z,21.02
2022-09-17T06:41:10.422Z,21.01
2022-09-17T06:41:41.816Z,21.00
2022-09-17T06:42:13.202Z,21.01
2022-09-17T06:42:44.618Z,21.01
2022-09-17T06:43:15.996Z,21.00
2022-09-17T06:43:47.392Z,21.00
2022-09-17T06:44:18.804Z,21.00
2022-09-17T06:44:50.204Z,21.00